sensor_id;sensor_type;location;lat;lon;timestamp;pressure;altitude;pressure_sealevel;temperature;humidity
19086;BME280;9675;51.538;6.728;2023-02-19T00:01:24;101398.88;;;10.60;100.00
19086;BME280;9675;51.538;6.728;2023-02-19T00:03:54;101397.88;;;10.58;100.00
19086;BME280;9675;51.538;6.728;2023-02-19T00:06:24;101404.81;;;10.59;100.00
19086;BME280;9675;51.538;6.728;2023-02-19T00:08:52;101400.47;;;10.58;100.00
19086;BME280;9675;51.538;6.728;2023-02-19T00:11:24;101402.16;;;10.58;100.00
19086;BME280;9675;51.538;6.728;2023-02-19T00:13:54;101403.81;;;10.57;100.00
19086;BME280;9675;51.538;6.728;2023-02-19T00:16:24;101402.16;;;10.58;100.00
19086;BME280;9675;51.538;6.728;2023-02-19T00:18:53;101389.19;;;10.56;100.00
19086;BME280;9675;51.538;6.728;2023-02-19T00:21:21;101388.38;;;10.57;100.00
19086;BME280;9675;51.538;6.728;2023-02-19T00:23:49;101395.22;;;10.57;100.00
19086;BME280;9675;51.538;6.728;2023-02-19T00:26:17;101389.19;;;10.56;100.00
19086;BME280;9675;51.538;6.728;2023-02-19T00:28:46;101393.47;;;10.56;100.00
19086;BME280;9675;51.538;6.728;2023-02-19T00:31:17;101387.41;;;10.55;100.00
19086;BME280;9675;51.538;6.728;2023-02-19T00:33:47;101390.00;;;10.55;100.00
19086;BME280;9675;51.538;6.728;2023-02-19T00:36:15;101383.06;;;10.54;100.00
19086;BME280;9675;51.538;6.728;2023-02-19T00:38:43;101383.06;;;10.54;100.00
19086;BME280;9675;51.538;6.728;2023-02-19T00:41:12;101385.53;;;10.53;100.00
19086;BME280;9675;51.538;6.728;2023-02-19T00:43:52;101383.06;;;10.54;100.00
19086;BME280;9675;51.538;6.728;2023-02-19T00:46:22;101380.50;;;10.54;100.00
19086;BME280;9675;51.538;6.728;2023-02-19T00:48:50;101378.53;;;10.50;100.00
19086;BME280;9675;51.538;6.728;2023-02-19T00:51:18;101380.50;;;10.54;100.00
19086;BME280;9675;51.538;6.728;2023-02-19T00:53:46;101384.75;;;10.54;100.00
19086;BME280;9675;51.538;6.728;2023-02-19T00:56:14;101376.75;;;10.49;100.00
19086;BME280;9675;51.538;6.728;2023-02-19T00:58:41;101382.91;;;10.51;100.00
19086;BME280;9675;51.538;6.728;2023-02-19T01:01:10;101368.03;;;10.47;100.00
19086;BME280;9675;51.538;6.728;2023-02-19T01:03:38;101375.88;;;10.49;100.00
19086;BME280;9675;51.538;6.728;2023-02-19T01:06:08;101375.19;;;10.51;100.00
19086;BME280;9675;51.538;6.728;2023-02-19T01:08:36;101377.66;;;10.50;100.00
19086;BME280;9675;51.538;6.728;2023-02-19T01:11:06;101375.88;;;10.49;100.00
19086;BME280;9675;51.538;6.728;2023-02-19T01:13:34;101373.41;;;10.50;100.00
19086;BME280;9675;51.538;6.728;2023-02-19T01:16:07;101375.19;;;10.51;100.00
19086;BME280;9675;51.538;6.728;2023-02-19T01:18:36;101375.06;;;10.50;100.00
19086;BME280;9675;51.538;6.728;2023-02-19T01:21:05;101381.91;;;10.49;100.00
19086;BME280;9675;51.538;6.728;2023-02-19T01:23:33;101379.97;;;10.45;100.00
19086;BME280;9675;51.538;6.728;2023-02-19T01:26:04;101383.50;;;10.47;100.00
19086;BME280;9675;51.538;6.728;2023-02-19T01:28:32;101391.16;;;10.46;100.00
19086;BME280;9675;51.538;6.728;2023-02-19T01:31:01;101382.53;;;10.45;100.00
19086;BME280;9675;51.538;6.728;2023-02-19T01:33:29;101386.00;;;10.46;100.00
19086;BME280;9675;51.538;6.728;2023-02-19T01:35:58;101383.50;;;10.47;100.00
19086;BME280;9675;51.538;6.728;2023-02-19T01:38:25;101386.91;;;10.46;100.00
19086;BME280;9675;51.538;6.728;2023-02-19T01:40:56;101394.63;;;10.46;100.00
19086;BME280;9675;51.538;6.728;2023-02-19T01:43:24;101396.31;;;10.46;100.00
19086;BME280;9675;51.538;6.728;2023-02-19T01:45:52;101389.47;;;10.46;100.00
19086;BME280;9675;51.538;6.728;2023-02-19T01:48:25;101392.72;;;10.44;100.00
19086;BME280;9675;51.538;6.728;2023-02-19T01:50:59;101385.13;;;10.45;100.00
19086;BME280;9675;51.538;6.728;2023-02-19T01:53:33;101387.75;;;10.47;100.00
19086;BME280;9675;51.538;6.728;2023-02-19T01:56:03;101388.66;;;10.47;100.00
19086;BME280;9675;51.538;6.728;2023-02-19T01:58:34;101391.22;;;10.47;100.00
19086;BME280;9675;51.538;6.728;2023-02-19T02:01:06;101388.66;;;10.47;100.00
19086;BME280;9675;51.538;6.728;2023-02-19T02:03:37;101400.72;;;10.48;100.00
19086;BME280;9675;51.538;6.728;2023-02-19T02:06:15;101397.19;;;10.46;100.00
19086;BME280;9675;51.538;6.728;2023-02-19T02:08:43;101394.63;;;10.46;100.00
19086;BME280;9675;51.538;6.728;2023-02-19T02:11:30;101395.41;;;10.45;100.00
19086;BME280;9675;51.538;6.728;2023-02-19T02:13:58;101398.88;;;10.46;100.00
19086;BME280;9675;51.538;6.728;2023-02-19T02:16:34;101394.53;;;10.45;100.00
19086;BME280;9675;51.538;6.728;2023-02-19T02:19:33;101400.56;;;10.45;100.00
19086;BME280;9675;51.538;6.728;2023-02-19T02:22:15;101395.22;;;10.42;100.00
19086;BME280;9675;51.538;6.728;2023-02-19T02:25:47;101394.31;;;10.42;100.00
19086;BME280;9675;51.538;6.728;2023-02-19T02:28:45;101394.25;;;10.40;100.00
19086;BME280;9675;51.538;6.728;2023-02-19T02:31:26;101401.09;;;10.40;100.00
19086;BME280;9675;51.538;6.728;2023-02-19T02:34:03;101400.97;;;10.38;100.00
19086;BME280;9675;51.538;6.728;2023-02-19T02:36:36;101394.94;;;10.38;100.00
19086;BME280;9675;51.538;6.728;2023-02-19T02:39:10;101391.47;;;10.37;100.00
19086;BME280;9675;51.538;6.728;2023-02-19T02:41:43;101391.56;;;10.39;100.00
19086;BME280;9675;51.538;6.728;2023-02-19T02:44:11;101395.84;;;10.38;100.00
19086;BME280;9675;51.538;6.728;2023-02-19T02:46:43;101386.31;;;10.37;100.00
19086;BME280;9675;51.538;6.728;2023-02-19T02:49:19;101392.38;;;10.38;100.00
19086;BME280;9675;51.538;6.728;2023-02-19T02:51:51;101391.56;;;10.39;100.00
19086;BME280;9675;51.538;6.728;2023-02-19T02:54:25;101395.03;;;10.39;100.00
19086;BME280;9675;51.538;6.728;2023-02-19T02:57:12;101400.97;;;10.38;100.00
19086;BME280;9675;51.538;6.728;2023-02-19T02:59:42;101399.19;;;10.37;100.00
19086;BME280;9675;51.538;6.728;2023-02-19T03:02:16;101403.47;;;10.37;100.00
19086;BME280;9675;51.538;6.728;2023-02-19T03:04:52;101405.06;;;10.35;100.00
19086;BME280;9675;51.538;6.728;2023-02-19T03:07:44;101403.38;;;10.35;100.00
19086;BME280;9675;51.538;6.728;2023-02-19T03:10:18;101402.41;;;10.33;100.00
19086;BME280;9675;51.538;6.728;2023-02-19T03:12:52;101421.31;;;10.34;100.00
19086;BME280;9675;51.538;6.728;2023-02-19T03:15:43;101416.84;;;10.31;100.00
19086;BME280;9675;51.538;6.728;2023-02-19T03:18:31;101416.84;;;10.31;100.00
19086;BME280;9675;51.538;6.728;2023-02-19T03:21:19;101423.00;;;10.33;100.00
19086;BME280;9675;51.538;6.728;2023-02-19T03:23:48;101431.50;;;10.32;100.00
19086;BME280;9675;51.538;6.728;2023-02-19T03:26:36;101427.16;;;10.31;100.00
19086;BME280;9675;51.538;6.728;2023-02-19T03:29:06;101433.19;;;10.32;100.00
19086;BME280;9675;51.538;6.728;2023-02-19T03:31:53;101432.22;;;10.30;100.00
19086;BME280;9675;51.538;6.728;2023-02-19T03:34:25;101429.66;;;10.30;100.00
19086;BME280;9675;51.538;6.728;2023-02-19T03:37:02;101431.34;;;10.29;100.00
19086;BME280;9675;51.538;6.728;2023-02-19T03:39:32;101442.53;;;10.30;100.00
19086;BME280;9675;51.538;6.728;2023-02-19T03:42:19;101445.88;;;10.29;100.00
19086;BME280;9675;51.538;6.728;2023-02-19T03:45:01;101438.16;;;10.29;100.00
19086;BME280;9675;51.538;6.728;2023-02-19T03:47:40;101441.53;;;10.28;100.00
19086;BME280;9675;51.538;6.728;2023-02-19T03:50:17;101450.94;;;10.27;100.00
19086;BME280;9675;51.538;6.728;2023-02-19T03:52:55;101453.44;;;10.26;100.00
19086;BME280;9675;51.538;6.728;2023-02-19T03:55:31;101449.69;;;10.20;100.00
19086;BME280;9675;51.538;6.728;2023-02-19T03:58:07;101450.75;;;10.24;100.00
19086;BME280;9675;51.538;6.728;2023-02-19T04:00:42;101453.34;;;10.24;100.00
19086;BME280;9675;51.538;6.728;2023-02-19T04:03:18;101454.13;;;10.23;100.00
19086;BME280;9675;51.538;6.728;2023-02-19T04:05:54;101460.84;;;10.21;100.00
19086;BME280;9675;51.538;6.728;2023-02-19T04:08:26;101468.56;;;10.21;100.00
19086;BME280;9675;51.538;6.728;2023-02-19T04:10:57;101477.91;;;10.19;100.00
19086;BME280;9675;51.538;6.728;2023-02-19T04:13:29;101484.84;;;10.20;100.00
19086;BME280;9675;51.538;6.728;2023-02-19T04:16:03;101482.94;;;10.17;100.00
19086;BME280;9675;51.538;6.728;2023-02-19T04:18:37;101494.13;;;10.18;100.00
19086;BME280;9675;51.538;6.728;2023-02-19T04:21:08;101489.88;;;10.18;100.00
19086;BME280;9675;51.538;6.728;2023-02-19T04:23:40;101500.84;;;10.16;100.00
19086;BME280;9675;51.538;6.728;2023-02-19T04:26:09;101503.22;;;10.13;100.00
19086;BME280;9675;51.538;6.728;2023-02-19T04:28:38;101504.00;;;10.12;100.00
19086;BME280;9675;51.538;6.728;2023-02-19T04:31:07;101502.34;;;10.12;100.00
19086;BME280;9675;51.538;6.728;2023-02-19T04:33:35;101500.53;;;10.11;100.00
19086;BME280;9675;51.538;6.728;2023-02-19T04:36:03;101516.88;;;10.12;100.00
19086;BME280;9675;51.538;6.728;2023-02-19T04:38:31;101513.41;;;10.11;100.00
19086;BME280;9675;51.538;6.728;2023-02-19T04:40:58;101517.38;;;10.06;100.00
19086;BME280;9675;51.538;6.728;2023-02-19T04:43:25;101517.59;;;10.09;100.00
19086;BME280;9675;51.538;6.728;2023-02-19T04:45:52;101520.06;;;10.08;100.00
19086;BME280;9675;51.538;6.728;2023-02-19T04:48:19;101522.63;;;10.08;100.00
19086;BME280;9675;51.538;6.728;2023-02-19T04:50:46;101519.06;;;10.06;100.00
19086;BME280;9675;51.538;6.728;2023-02-19T04:53:13;101518.09;;;10.04;100.00
19086;BME280;9675;51.538;6.728;2023-02-19T04:55:41;101520.69;;;10.04;100.00
19086;BME280;9675;51.538;6.728;2023-02-19T04:58:08;101521.47;;;10.03;100.00
19086;BME280;9675;51.538;6.728;2023-02-19T05:00:35;101533.53;;;10.04;100.00
19086;BME280;9675;51.538;6.728;2023-02-19T05:03:02;101531.56;;;10.00;100.00
19086;BME280;9675;51.538;6.728;2023-02-19T05:05:30;101537.59;;;10.00;100.00
19086;BME280;9675;51.538;6.728;2023-02-19T05:07:57;101536.78;;;10.01;100.00
19086;BME280;9675;51.538;6.728;2023-02-19T05:10:24;101530.75;;;10.01;100.00
19086;BME280;9675;51.538;6.728;2023-02-19T05:12:53;101539.28;;;10.00;100.00
19086;BME280;9675;51.538;6.728;2023-02-19T05:15:21;101543.63;;;10.01;100.00
19086;BME280;9675;51.538;6.728;2023-02-19T05:17:47;101555.69;;;10.02;100.00
19086;BME280;9675;51.538;6.728;2023-02-19T05:20:15;101560.84;;;10.02;100.00
19086;BME280;9675;51.538;6.728;2023-02-19T05:22:42;101562.44;;;10.00;100.00
19086;BME280;9675;51.538;6.728;2023-02-19T05:25:09;101565.81;;;9.99;100.00
19086;BME280;9675;51.538;6.728;2023-02-19T05:27:36;101565.69;;;9.97;100.00
19086;BME280;9675;51.538;6.728;2023-02-19T05:30:05;101569.06;;;9.96;100.00
19086;BME280;9675;51.538;6.728;2023-02-19T05:32:34;101564.69;;;9.95;100.00
19086;BME280;9675;51.538;6.728;2023-02-19T05:35:02;101574.22;;;9.96;100.00
19086;BME280;9675;51.538;6.728;2023-02-19T05:37:29;101579.47;;;9.98;100.00
19086;BME280;9675;51.538;6.728;2023-02-19T05:39:56;101579.28;;;9.95;100.00
19086;BME280;9675;51.538;6.728;2023-02-19T05:42:23;101581.91;;;9.96;100.00
19086;BME280;9675;51.538;6.728;2023-02-19T05:44:50;101579.28;;;9.95;100.00
19086;BME280;9675;51.538;6.728;2023-02-19T05:47:18;101584.31;;;9.93;100.00
19086;BME280;9675;51.538;6.728;2023-02-19T05:49:45;101592.81;;;9.92;100.00
19086;BME280;9675;51.538;6.728;2023-02-19T05:52:12;101589.34;;;9.92;100.00
19086;BME280;9675;51.538;6.728;2023-02-19T05:54:39;101588.47;;;9.91;100.00
19086;BME280;9675;51.538;6.728;2023-02-19T05:57:06;101585.78;;;9.90;100.00
19086;BME280;9675;51.538;6.728;2023-02-19T05:59:33;101588.34;;;9.90;100.00
19086;BME280;9675;51.538;6.728;2023-02-19T06:02:00;101600.25;;;9.88;100.00
19086;BME280;9675;51.538;6.728;2023-02-19T06:04:29;101594.31;;;9.89;100.00
19086;BME280;9675;51.538;6.728;2023-02-19T06:06:56;101594.31;;;9.89;100.00
19086;BME280;9675;51.538;6.728;2023-02-19T06:09:23;101595.09;;;9.88;100.00
19086;BME280;9675;51.538;6.728;2023-02-19T06:11:50;101600.84;;;9.84;100.00
19086;BME280;9675;51.538;6.728;2023-02-19T06:14:17;101603.41;;;9.84;100.00
19086;BME280;9675;51.538;6.728;2023-02-19T06:16:44;101594.03;;;9.84;100.00
19086;BME280;9675;51.538;6.728;2023-02-19T06:19:11;101600.84;;;9.84;100.00
19086;BME280;9675;51.538;6.728;2023-02-19T06:21:39;101617.19;;;9.84;100.00
19086;BME280;9675;51.538;6.728;2023-02-19T06:24:08;101615.38;;;9.83;100.00
19086;BME280;9675;51.538;6.728;2023-02-19T06:26:35;101614.50;;;9.82;100.00
19086;BME280;9675;51.538;6.728;2023-02-19T06:29:03;101623.88;;;9.82;100.00
19086;BME280;9675;51.538;6.728;2023-02-19T06:31:30;101626.34;;;9.80;100.00
19086;BME280;9675;51.538;6.728;2023-02-19T06:33:57;101623.88;;;9.82;100.00
19086;BME280;9675;51.538;6.728;2023-02-19T06:36:24;101619.53;;;9.81;100.00
19086;BME280;9675;51.538;6.728;2023-02-19T06:38:52;101618.63;;;9.80;100.00
19086;BME280;9675;51.538;6.728;2023-02-19T06:41:19;101631.41;;;9.79;100.00
19086;BME280;9675;51.538;6.728;2023-02-19T06:43:46;101634.84;;;9.79;100.00
19086;BME280;9675;51.538;6.728;2023-02-19T06:46:13;101634.00;;;9.79;100.00
19086;BME280;9675;51.538;6.728;2023-02-19T06:48:42;101642.50;;;9.78;100.00
19086;BME280;9675;51.538;6.728;2023-02-19T06:51:12;101649.31;;;9.77;100.00
19086;BME280;9675;51.538;6.728;2023-02-19T06:53:39;101656.13;;;9.77;100.00
19086;BME280;9675;51.538;6.728;2023-02-19T06:56:23;101666.41;;;9.77;100.00
19086;BME280;9675;51.538;6.728;2023-02-19T06:58:52;101675.81;;;9.76;100.00
19086;BME280;9675;51.538;6.728;2023-02-19T07:01:19;101672.25;;;9.74;100.00
19086;BME280;9675;51.538;6.728;2023-02-19T07:03:46;101677.38;;;9.74;100.00
19086;BME280;9675;51.538;6.728;2023-02-19T07:06:13;101683.41;;;9.75;100.00
19086;BME280;9675;51.538;6.728;2023-02-19T07:08:40;101690.25;;;9.74;100.00
19086;BME280;9675;51.538;6.728;2023-02-19T07:11:08;101689.28;;;9.72;100.00
19086;BME280;9675;51.538;6.728;2023-02-19T07:13:36;101687.66;;;9.74;100.00
19086;BME280;9675;51.538;6.728;2023-02-19T07:16:06;101692.81;;;9.74;100.00
19086;BME280;9675;51.538;6.728;2023-02-19T07:18:34;101695.31;;;9.73;100.00
19086;BME280;9675;51.538;6.728;2023-02-19T07:21:02;101714.19;;;9.73;100.00
19086;BME280;9675;51.538;6.728;2023-02-19T07:23:29;101712.31;;;9.71;100.00
19086;BME280;9675;51.538;6.728;2023-02-19T07:25:57;101717.44;;;9.71;100.00
19086;BME280;9675;51.538;6.728;2023-02-19T07:28:25;101720.91;;;9.71;100.00
19086;BME280;9675;51.538;6.728;2023-02-19T07:30:53;101721.69;;;9.70;100.00
19086;BME280;9675;51.538;6.728;2023-02-19T07:33:20;101728.50;;;9.70;100.00
19086;BME280;9675;51.538;6.728;2023-02-19T07:35:49;101730.19;;;9.69;100.00
19086;BME280;9675;51.538;6.728;2023-02-19T07:38:17;101731.09;;;9.70;100.00
19086;BME280;9675;51.538;6.728;2023-02-19T07:40:50;101735.34;;;9.69;100.00
19086;BME280;9675;51.538;6.728;2023-02-19T07:43:18;101743.06;;;9.69;100.00
19086;BME280;9675;51.538;6.728;2023-02-19T07:45:46;101741.28;;;9.68;100.00
19086;BME280;9675;51.538;6.728;2023-02-19T07:48:14;101747.22;;;9.67;100.00
19086;BME280;9675;51.538;6.728;2023-02-19T07:50:41;101749.00;;;9.68;100.00
19086;BME280;9675;51.538;6.728;2023-02-19T07:53:08;101750.56;;;9.66;100.00
19086;BME280;9675;51.538;6.728;2023-02-19T07:55:35;101757.50;;;9.67;100.00
19086;BME280;9675;51.538;6.728;2023-02-19T07:58:02;101764.44;;;9.68;100.00
19086;BME280;9675;51.538;6.728;2023-02-19T08:00:29;101780.34;;;9.63;100.00
19086;BME280;9675;51.538;6.728;2023-02-19T08:02:57;101778.06;;;9.67;100.00
19086;BME280;9675;51.538;6.728;2023-02-19T08:05:29;101782.31;;;9.67;100.00
19086;BME280;9675;51.538;6.728;2023-02-19T08:07:57;101790.03;;;9.67;100.00
19086;BME280;9675;51.538;6.728;2023-02-19T08:10:25;101777.06;;;9.65;100.00
19086;BME280;9675;51.538;6.728;2023-02-19T08:13:12;101783.22;;;9.67;100.00
19086;BME280;9675;51.538;6.728;2023-02-19T08:15:49;101779.44;;;9.62;100.00
19086;BME280;9675;51.538;6.728;2023-02-19T08:18:21;101783.00;;;9.64;100.00
19086;BME280;9675;51.538;6.728;2023-02-19T08:20:49;101778.88;;;9.66;100.00
19086;BME280;9675;51.538;6.728;2023-02-19T08:23:16;101794.47;;;9.69;100.00
19086;BME280;9675;51.538;6.728;2023-02-19T08:25:48;101786.38;;;9.63;100.00
19086;BME280;9675;51.538;6.728;2023-02-19T08:28:16;101787.25;;;9.64;100.00
19086;BME280;9675;51.538;6.728;2023-02-19T08:30:45;101786.56;;;9.66;100.00
19086;BME280;9675;51.538;6.728;2023-02-19T08:33:18;101795.31;;;9.68;100.00
19086;BME280;9675;51.538;6.728;2023-02-19T08:35:46;101786.56;;;9.66;100.00
19086;BME280;9675;51.538;6.728;2023-02-19T08:38:14;101782.53;;;9.70;100.00
19086;BME280;9675;51.538;6.728;2023-02-19T08:40:42;101794.47;;;9.69;100.00
19086;BME280;9675;51.538;6.728;2023-02-19T08:43:12;101796.38;;;9.72;100.00
19086;BME280;9675;51.538;6.728;2023-02-19T08:45:42;101800.63;;;9.71;100.00
19086;BME280;9675;51.538;6.728;2023-02-19T08:48:10;101802.44;;;9.72;100.00
19086;BME280;9675;51.538;6.728;2023-02-19T08:50:39;101796.06;;;9.67;100.00
19086;BME280;9675;51.538;6.728;2023-02-19T08:53:06;101807.56;;;9.72;100.00
19086;BME280;9675;51.538;6.728;2023-02-19T08:55:36;101812.72;;;9.72;100.00
19086;BME280;9675;51.538;6.728;2023-02-19T08:58:03;101809.44;;;9.75;100.00
19086;BME280;9675;51.538;6.728;2023-02-19T09:00:30;101812.91;;;9.75;100.00
19086;BME280;9675;51.538;6.728;2023-02-19T09:02:57;101815.59;;;9.77;100.00
19086;BME280;9675;51.538;6.728;2023-02-19T09:05:24;101832.41;;;9.72;100.00
19086;BME280;9675;51.538;6.728;2023-02-19T09:07:53;101833.59;;;9.77;100.00
19086;BME280;9675;51.538;6.728;2023-02-19T09:10:20;101835.38;;;9.78;100.00
19086;BME280;9675;51.538;6.728;2023-02-19T09:12:47;101849.16;;;9.78;100.00
19086;BME280;9675;51.538;6.728;2023-02-19T09:15:14;101860.34;;;9.79;100.00
19086;BME280;9675;51.538;6.728;2023-02-19T09:17:41;101862.00;;;9.78;100.00
19086;BME280;9675;51.538;6.728;2023-02-19T09:20:09;101856.88;;;9.78;100.00
19086;BME280;9675;51.538;6.728;2023-02-19T09:22:36;101864.66;;;9.80;100.00
19086;BME280;9675;51.538;6.728;2023-02-19T09:25:05;101876.63;;;9.79;100.00
19086;BME280;9675;51.538;6.728;2023-02-19T09:27:32;101877.53;;;9.80;100.00
19086;BME280;9675;51.538;6.728;2023-02-19T09:29:59;101871.59;;;9.81;100.00
19086;BME280;9675;51.538;6.728;2023-02-19T09:32:29;101863.00;;;9.80;100.00
19086;BME280;9675;51.538;6.728;2023-02-19T09:34:56;101857.66;;;9.77;100.00
19086;BME280;9675;51.538;6.728;2023-02-19T09:37:25;101872.59;;;9.83;100.00
19086;BME280;9675;51.538;6.728;2023-02-19T09:39:53;101868.34;;;9.84;100.00
19086;BME280;9675;51.538;6.728;2023-02-19T09:42:23;101870.94;;;9.84;100.00
19086;BME280;9675;51.538;6.728;2023-02-19T09:44:57;101873.50;;;9.84;100.00
19086;BME280;9675;51.538;6.728;2023-02-19T09:47:28;101879.53;;;9.84;100.00
19086;BME280;9675;51.538;6.728;2023-02-19T09:50:01;101888.47;;;9.89;100.00
19086;BME280;9675;51.538;6.728;2023-02-19T09:52:36;101884.19;;;9.90;100.00
19086;BME280;9675;51.538;6.728;2023-02-19T09:55:17;101899.75;;;9.91;100.00
19086;BME280;9675;51.538;6.728;2023-02-19T09:57:50;101899.84;;;9.93;100.00
19086;BME280;9675;51.538;6.728;2023-02-19T10:00:23;101903.31;;;9.93;100.00
19086;BME280;9675;51.538;6.728;2023-02-19T10:02:52;101906.00;;;9.95;100.00
19086;BME280;9675;51.538;6.728;2023-02-19T10:05:22;101928.34;;;9.96;100.00
19086;BME280;9675;51.538;6.728;2023-02-19T10:07:52;101937.19;;;9.99;100.00
19086;BME280;9675;51.538;6.728;2023-02-19T10:10:30;101937.28;;;10.01;100.00
19086;BME280;9675;51.538;6.728;2023-02-19T10:13:14;101928.91;;;10.03;100.00
19086;BME280;9675;51.538;6.728;2023-02-19T10:15:48;101929.00;;;10.05;100.00
19086;BME280;9675;51.538;6.728;2023-02-19T10:18:22;101936.03;;;10.07;100.00
19086;BME280;9675;51.538;6.728;2023-02-19T10:20:51;101943.88;;;10.09;100.00
19086;BME280;9675;51.538;6.728;2023-02-19T10:23:20;101952.47;;;10.09;100.00
19086;BME280;9675;51.538;6.728;2023-02-19T10:25:52;101957.63;;;10.09;100.00
19086;BME280;9675;51.538;6.728;2023-02-19T10:28:28;101961.28;;;10.13;100.00
19086;BME280;9675;51.538;6.728;2023-02-19T10:30:58;101964.00;;;10.14;100.00
19086;BME280;9675;51.538;6.728;2023-02-19T10:33:29;101964.00;;;10.14;100.00
19086;BME280;9675;51.538;6.728;2023-02-19T10:35:59;101972.84;;;10.18;100.00
19086;BME280;9675;51.538;6.728;2023-02-19T10:38:31;101966.13;;;10.20;100.00
19086;BME280;9675;51.538;6.728;2023-02-19T10:41:06;101969.69;;;10.22;100.00
19086;BME280;9675;51.538;6.728;2023-02-19T10:43:40;101973.16;;;10.22;100.00
19086;BME280;9675;51.538;6.728;2023-02-19T10:46:17;101972.56;;;10.27;100.00
19086;BME280;9675;51.538;6.728;2023-02-19T10:48:50;101982.09;;;10.28;100.00
19086;BME280;9675;51.538;6.728;2023-02-19T10:51:19;101973.56;;;10.29;100.00
19086;BME280;9675;51.538;6.728;2023-02-19T10:54:02;101981.41;;;10.30;100.00
19086;BME280;9675;51.538;6.728;2023-02-19T10:56:30;101981.41;;;10.30;100.00
19086;BME280;9675;51.538;6.728;2023-02-19T10:59:20;101985.19;;;10.35;100.00
19086;BME280;9675;51.538;6.728;2023-02-19T11:01:57;101993.13;;;10.38;100.00
19086;BME280;9675;51.538;6.728;2023-02-19T11:04:26;101991.56;;;10.40;100.00
19086;BME280;9675;51.538;6.728;2023-02-19T11:06:53;102005.31;;;10.41;100.00
19086;BME280;9675;51.538;6.728;2023-02-19T11:09:27;102007.97;;;10.42;100.00
19086;BME280;9675;51.538;6.728;2023-02-19T11:11:57;102005.63;;;10.45;100.00
19086;BME280;9675;51.538;6.728;2023-02-19T11:14:28;101998.50;;;10.41;100.00
19086;BME280;9675;51.538;6.728;2023-02-19T11:16:59;102000.38;;;10.44;100.00
19086;BME280;9675;51.538;6.728;2023-02-19T11:19:34;102001.06;;;10.41;100.00
19086;BME280;9675;51.538;6.728;2023-02-19T11:22:23;102018.94;;;10.51;100.00
19086;BME280;9675;51.538;6.728;2023-02-19T11:24:54;102004.34;;;10.52;100.00
19086;BME280;9675;51.538;6.728;2023-02-19T11:27:24;101992.94;;;10.48;100.00
19086;BME280;9675;51.538;6.728;2023-02-19T11:29:52;101983.19;;;10.56;100.00
19086;BME280;9675;51.538;6.728;2023-02-19T11:32:28;101988.41;;;10.57;100.00
19086;BME280;9675;51.538;6.728;2023-02-19T11:35:17;101984.09;;;10.56;100.00
19086;BME280;9675;51.538;6.728;2023-02-19T11:37:57;101992.69;;;10.57;100.00
19086;BME280;9675;51.538;6.728;2023-02-19T11:40:44;101984.38;;;10.61;100.00
19086;BME280;9675;51.538;6.728;2023-02-19T11:43:39;101971.59;;;10.62;100.00
19086;BME280;9675;51.538;6.728;2023-02-19T11:46:21;101975.19;;;10.64;100.00
19086;BME280;9675;51.538;6.728;2023-02-19T11:48:56;101977.75;;;10.64;100.00
19086;BME280;9675;51.538;6.728;2023-02-19T11:52:05;101964.22;;;10.67;100.00
19086;BME280;9675;51.538;6.728;2023-02-19T11:54:48;101973.03;;;10.71;100.00
19086;BME280;9675;51.538;6.728;2023-02-19T11:57:39;101974.88;;;10.73;100.00
19086;BME280;9675;51.538;6.728;2023-02-19T12:00:22;101976.69;;;10.74;100.00
19086;BME280;9675;51.538;6.728;2023-02-19T12:03:26;101983.63;;;10.75;100.00
19086;BME280;9675;51.538;6.728;2023-02-19T12:06:17;101988.88;;;10.77;100.00
19086;BME280;9675;51.538;6.728;2023-02-19T12:09:15;101998.19;;;10.75;100.00
19086;BME280;9675;51.538;6.728;2023-02-19T12:12:22;102010.47;;;10.79;100.00
19086;BME280;9675;51.538;6.728;2023-02-19T12:15:26;101996.63;;;10.77;100.00
19086;BME280;9675;51.538;6.728;2023-02-19T12:18:31;102001.97;;;10.80;100.00
19086;BME280;9675;51.538;6.728;2023-02-19T12:21:21;101994.13;;;10.78;100.00
19086;BME280;9675;51.538;6.728;2023-02-19T12:24:24;102001.19;;;10.81;100.00
19086;BME280;9675;51.538;6.728;2023-02-19T12:27:14;102004.34;;;10.77;100.00
19086;BME280;9675;51.538;6.728;2023-02-19T12:33:37;102002.06;;;10.81;100.00
19086;BME280;9675;51.538;6.728;2023-02-19T12:36:16;102001.97;;;10.80;100.00
19086;BME280;9675;51.538;6.728;2023-02-19T12:38:57;102008.19;;;10.83;100.00
19086;BME280;9675;51.538;6.728;2023-02-19T12:41:38;102003.47;;;10.89;100.00
19086;BME280;9675;51.538;6.728;2023-02-19T12:44:14;102004.38;;;10.90;100.00
19086;BME280;9675;51.538;6.728;2023-02-19T12:46:50;102012.09;;;10.90;100.00
19086;BME280;9675;51.538;6.728;2023-02-19T12:49:25;102013.09;;;10.92;100.00
19086;BME280;9675;51.538;6.728;2023-02-19T12:51:56;102006.16;;;10.91;100.00
19086;BME280;9675;51.538;6.728;2023-02-19T12:54:29;102006.34;;;10.94;100.00
19086;BME280;9675;51.538;6.728;2023-02-19T12:57:05;102008.25;;;10.96;100.00
19086;BME280;9675;51.538;6.728;2023-02-19T12:59:40;102015.09;;;10.96;100.00
19086;BME280;9675;51.538;6.728;2023-02-19T13:02:17;102022.94;;;10.97;100.00
19086;BME280;9675;51.538;6.728;2023-02-19T13:04:54;102013.28;;;10.95;100.00
19086;BME280;9675;51.538;6.728;2023-02-19T13:07:32;102011.72;;;10.97;100.00
19086;BME280;9675;51.538;6.728;2023-02-19T13:10:21;102017.66;;;10.96;100.00
19086;BME280;9675;51.538;6.728;2023-02-19T13:12:54;102017.56;;;10.94;100.00
19086;BME280;9675;51.538;6.728;2023-02-19T13:15:32;102020.06;;;10.93;100.00
19086;BME280;9675;51.538;6.728;2023-02-19T13:18:04;102015.75;;;10.93;100.00
19086;BME280;9675;51.538;6.728;2023-02-19T13:20:41;102014.91;;;10.93;100.00
19086;BME280;9675;51.538;6.728;2023-02-19T13:23:16;102016.88;;;10.97;100.00
19086;BME280;9675;51.538;6.728;2023-02-19T13:26:36;102025.38;;;10.96;100.00